Monday, February 19, 2018, 4:54 AM EST
Back to Local

KPYM, Plymouth Municipal Airport

Location: Carver, MA, United States Lat: 41.9
Local Time: 4:54 AM EST ( 9:54 GMT) Lon: -70.733
Time Zone: US/Eastern Elev: 147 ft

Show me the last for .
Show Decoded

2018-02-19 03:52 METAR KPYM 190852Z AUTO 00000KT 10SM CLR M04/M06 A3053 RMK AO2 SLP341 I1000
                 I3000 T10441061 58000 TSNO =
2018-02-19 02:52 METAR KPYM 190752Z AUTO 00000KT 10SM CLR M04/M06 A3053 RMK AO2 SLP341 I1000
                 T10441061 TSNO =
2018-02-19 01:52 METAR KPYM 190652Z AUTO 00000KT 10SM CLR M04/M06 A3054 RMK AO2 SLP343 I1000
                 T10391056 TSNO =
2018-02-19 00:52 METAR KPYM 190552Z AUTO 00000KT 10SM CLR M04/M05 A3053 RMK AO2 SLP342 I1001
                 I6001 T10391050 10000 21044 50006 TSNO =
2018-02-18 23:52 METAR KPYM 190452Z AUTO 00000KT 10SM CLR M04/M05 A3055 RMK AO2 SLP348 I1000
                 T10391050 400721039 TSNO =
2018-02-18 22:52 METAR KPYM 190352Z AUTO 00000KT 10SM CLR M03/M04 A3053 RMK AO2 SLP341 I1000
                 T10281044 TSNO =
2018-02-18 21:52 METAR KPYM 190252Z AUTO 00000KT 10SM CLR M02/M04 A3052 RMK AO2 SLP335 T10221044
                 51033 TSNO =
2018-02-18 20:52 METAR KPYM 190152Z AUTO 00000KT 10SM CLR M02/M04 A3049 RMK AO2 SLP325 T10221044
                 TSNO =
2018-02-18 19:52 METAR KPYM 190052Z AUTO 00000KT 10SM CLR M02/M04 A3045 RMK AO2 SLP314 T10171039
                 TSNO =
2018-02-18 18:52 METAR KPYM 182352Z AUTO 12003KT 10SM CLR M01/M04 A3042 RMK AO2 SLP302 T10061039
                 10072 21006 53038 TSNO =
2018-02-18 17:52 METAR KPYM 182252Z AUTO 00000KT 10SM CLR 01/M04 A3037 RMK AO2 SLP286 T00111039
                 TSNO =
2018-02-18 16:52 METAR KPYM 182152Z AUTO 28003KT 10SM CLR 06/M06 A3034 RMK AO2 SLP274 T00561056
                 TSNO =
2018-02-18 15:52 METAR KPYM 182052Z AUTO 29006KT 10SM CLR 07/M06 A3031 RMK AO2 SLP263 T00671056
                 51035 TSNO =
2018-02-18 14:52 METAR KPYM 181952Z AUTO 29006KT 10SM FEW044 07/M04 A3029 RMK AO2 SLP259
                 T00721039 TSNO =
2018-02-18 13:52 METAR KPYM 181852Z AUTO 31009KT 10SM SCT040 06/M04 A3025 RMK AO2 SLP246
                 T00561039 TSNO =
2018-02-18 12:52 METAR KPYM 181752Z AUTO 31010G16KT 10SM CLR 06/M03 A3020 RMK AO2 PK WND
                 32026/1703 SLP229 60000 T00561028 10061 20011 51029 TSNO =
2018-02-18 11:52 METAR KPYM 181652Z AUTO 35016G25KT 10SM CLR 04/M03 A3015 RMK AO2 PK WND
                 34026/1611 SLP212 T00441028 TSNO =
2018-02-18 10:52 METAR KPYM 181552Z AUTO 32018G23KT 10SM CLR 03/M02 A3018 RMK AO2 SLP220
                 T00331017 TSNO =
2018-02-18 09:52 METAR KPYM 181452Z AUTO 32016G21KT 10SM CLR 02/M01 A3012 RMK AO2 SLP200 60000
                 T00221011 53055 TSNO =
2018-02-18 08:52 METAR KPYM 181352Z AUTO 32012G19KT 10SM FEW009 02/M01 A3005 RMK AO2 SLP178
                 T00171006 TSNO =
2018-02-18 08:37 METAR KPYM 181337Z AUTO 32013G18KT 10SM SCT009 01/M01 A3004 RMK AO2 T00111006
                 TSNO =
2018-02-18 07:52 METAR KPYM 181252Z AUTO 31009KT 10SM OVC007 01/M01 A3000 RMK AO2 SNE21 CIG
                 006V011 SLP161 P0000 T00111006 TSNO =
2018-02-18 07:20 METAR KPYM 181220Z AUTO 31010KT 7SM -SN OVC006 01/00 A2997 RMK AO2 CIG 005V010
                 P0000 T00110000 TSNO =
2018-02-18 06:52 METAR KPYM 181152Z AUTO 31010KT 2SM -SN BR BKN006 OVC023 01/00 A2995 RMK AO2
                 PRESRR SLP145 P0002 60030 70057 T00110000 10011 20006 51032 TSNO =
2018-02-18 06:49 METAR KPYM 181149Z AUTO 31009KT 1 3/4SM -SN BR BKN006 OVC023 01/00 A2995 RMK AO2
                 PRESRR P0002 TSNO =
2018-02-18 06:34 METAR KPYM 181134Z AUTO 31009KT 2SM -SN BR OVC005 01/00 A2993 RMK AO2 P0001
                 T00110000 TSNO =
2018-02-18 05:54 METAR KPYM 181054Z AUTO 29007KT 1 3/4SM -SN BR BKN004 OVC017 01/00 A2989 RMK AO2
                 VIS 1 1/4V3 P0000 T00110000 TSNO =
2018-02-18 05:52 METAR KPYM 181052Z AUTO 29008KT 2SM -SN BR SCT004 OVC017 01/00 A2989 RMK AO2 VIS
                 1 1/4V5 RAE42SNB42 SLP124 P0008 T00110000 TSNO =
2018-02-18 05:06 METAR KPYM 181006Z AUTO 29006KT 4SM RA BR FEW005 OVC017 01/00 A2987 RMK AO2
                 P0002 T00110000 TSNO =

Support USWX by starting your Amazon purchase here.